sensor_id;sensor_type;location;lat;lon;timestamp;pressure;altitude;pressure_sealevel;temperature;humidity
60228;BME280;46091;46.512;6.626;2023-04-25T05:53:30;96474.53;;;12.11;63.18
60228;BME280;46091;46.512;6.626;2023-04-25T05:55:33;96469.94;;;12.38;62.84
60228;BME280;46091;46.512;6.626;2023-04-25T05:57:36;96471.66;;;12.57;62.40
60228;BME280;46091;46.512;6.626;2023-04-25T05:59:42;96471.13;;;12.73;61.88
60228;BME280;46091;46.512;6.626;2023-04-25T06:01:45;96476.34;;;12.87;61.75
60228;BME280;46091;46.512;6.626;2023-04-25T06:03:49;96468.72;;;12.97;61.35
60228;BME280;46091;46.512;6.626;2023-04-25T06:05:53;96477.72;;;12.96;61.21
60228;BME280;46091;46.512;6.626;2023-04-25T06:07:56;96477.97;;;12.88;61.32
60228;BME280;46091;46.512;6.626;2023-04-25T06:10:01;96472.22;;;12.91;61.61
60228;BME280;46091;46.512;6.626;2023-04-25T06:12:05;96479.50;;;13.02;61.28
60228;BME280;46091;46.512;6.626;2023-04-25T06:14:08;96479.69;;;13.07;61.35
60228;BME280;46091;46.512;6.626;2023-04-25T06:16:11;96479.69;;;13.07;60.94
60228;BME280;46091;46.512;6.626;2023-04-25T06:18:14;96472.31;;;13.09;60.96
60228;BME280;46091;46.512;6.626;2023-04-25T06:20:17;96475.72;;;13.16;61.10
60228;BME280;46091;46.512;6.626;2023-04-25T06:22:21;96482.88;;;13.16;60.71
60228;BME280;46091;46.512;6.626;2023-04-25T06:24:23;96491.03;;;13.21;60.80
60228;BME280;46091;46.512;6.626;2023-04-25T06:26:28;96488.53;;;13.26;61.06
60228;BME280;46091;46.512;6.626;2023-04-25T06:28:31;96488.47;;;13.32;60.85
60228;BME280;46091;46.512;6.626;2023-04-25T06:30:33;96485.19;;;13.37;60.86
60228;BME280;46091;46.512;6.626;2023-04-25T06:32:36;96486.13;;;13.43;60.72
60228;BME280;46091;46.512;6.626;2023-04-25T06:34:39;96484.88;;;13.45;60.66
60228;BME280;46091;46.512;6.626;2023-04-25T06:36:42;96487.50;;;13.52;60.19
60228;BME280;46091;46.512;6.626;2023-04-25T06:38:47;96487.03;;;13.55;59.99
60228;BME280;46091;46.512;6.626;2023-04-25T06:40:50;96491.31;;;13.56;60.02
60228;BME280;46091;46.512;6.626;2023-04-25T06:42:55;96492.34;;;13.55;60.29
60228;BME280;46091;46.512;6.626;2023-04-25T06:44:58;96491.53;;;13.54;59.98
60228;BME280;46091;46.512;6.626;2023-04-25T06:47:02;96483.34;;;13.56;60.10
60228;BME280;46091;46.512;6.626;2023-04-25T06:49:05;96480.47;;;13.57;60.01
60228;BME280;46091;46.512;6.626;2023-04-25T06:51:08;96481.50;;;13.56;59.95
60228;BME280;46091;46.512;6.626;2023-04-25T06:53:11;96482.09;;;13.58;59.52
60228;BME280;46091;46.512;6.626;2023-04-25T06:55:13;96484.56;;;13.60;59.66
60228;BME280;46091;46.512;6.626;2023-04-25T06:57:16;96482.91;;;13.59;59.54
60228;BME280;46091;46.512;6.626;2023-04-25T06:59:21;96481.28;;;13.58;59.53
60228;BME280;46091;46.512;6.626;2023-04-25T07:01:25;96474.53;;;13.62;59.56
60228;BME280;46091;46.512;6.626;2023-04-25T07:03:28;96482.84;;;13.65;59.54
60228;BME280;46091;46.512;6.626;2023-04-25T07:05:31;96474.66;;;13.67;59.18
60228;BME280;46091;46.512;6.626;2023-04-25T07:07:34;96474.22;;;13.70;59.08
60228;BME280;46091;46.512;6.626;2023-04-25T07:09:37;96479.69;;;13.75;59.09
60228;BME280;46091;46.512;6.626;2023-04-25T07:11:39;96482.34;;;13.75;59.14
60228;BME280;46091;46.512;6.626;2023-04-25T07:13:42;96490.09;;;13.77;58.91
60228;BME280;46091;46.512;6.626;2023-04-25T07:15:47;96483.59;;;13.73;59.22
60228;BME280;46091;46.512;6.626;2023-04-25T07:17:50;96490.09;;;13.77;59.21
60228;BME280;46091;46.512;6.626;2023-04-25T07:19:53;96495.19;;;13.78;59.29
60228;BME280;46091;46.512;6.626;2023-04-25T07:21:56;96488.63;;;13.81;59.09
60228;BME280;46091;46.512;6.626;2023-04-25T07:23:58;96485.16;;;13.80;58.86
60228;BME280;46091;46.512;6.626;2023-04-25T07:26:01;96482.50;;;13.80;58.91
60228;BME280;46091;46.512;6.626;2023-04-25T07:28:04;96480.06;;;13.79;59.23
60228;BME280;46091;46.512;6.626;2023-04-25T07:30:08;96479.03;;;13.80;58.89
60228;BME280;46091;46.512;6.626;2023-04-25T07:32:14;96481.03;;;13.84;59.15
60228;BME280;46091;46.512;6.626;2023-04-25T07:34:17;96487.38;;;13.83;58.80
60228;BME280;46091;46.512;6.626;2023-04-25T07:36:20;96489.66;;;13.80;59.02
60228;BME280;46091;46.512;6.626;2023-04-25T07:38:23;96501.63;;;13.71;59.19
60228;BME280;46091;46.512;6.626;2023-04-25T07:40:26;96503.03;;;13.73;59.33
60228;BME280;46091;46.512;6.626;2023-04-25T07:42:29;96507.06;;;13.76;58.90
60228;BME280;46091;46.512;6.626;2023-04-25T07:44:32;96507.44;;;13.79;59.07
60228;BME280;46091;46.512;6.626;2023-04-25T07:46:39;96514.22;;;13.75;58.82
60228;BME280;46091;46.512;6.626;2023-04-25T07:48:44;96512.97;;;13.78;58.90
60228;BME280;46091;46.512;6.626;2023-04-25T07:50:47;96511.13;;;13.78;58.70
60228;BME280;46091;46.512;6.626;2023-04-25T07:52:49;96508.03;;;13.81;58.48
60228;BME280;46091;46.512;6.626;2023-04-25T07:54:53;96506.63;;;13.79;58.43
60228;BME280;46091;46.512;6.626;2023-04-25T07:56:55;96501.91;;;13.81;58.64
60228;BME280;46091;46.512;6.626;2023-04-25T07:59:00;96501.47;;;13.84;58.84
60228;BME280;46091;46.512;6.626;2023-04-25T08:01:03;96505.97;;;13.83;58.66
60228;BME280;46091;46.512;6.626;2023-04-25T08:03:06;96499.63;;;13.84;58.28
60228;BME280;46091;46.512;6.626;2023-04-25T08:05:10;96515.00;;;13.82;58.62
60228;BME280;46091;46.512;6.626;2023-04-25T08:07:16;96519.03;;;13.85;58.34
60228;BME280;46091;46.512;6.626;2023-04-25T08:09:19;96517.19;;;13.85;58.26
60228;BME280;46091;46.512;6.626;2023-04-25T08:11:23;96519.19;;;13.90;58.06
60228;BME280;46091;46.512;6.626;2023-04-25T08:13:26;96529.97;;;13.95;58.13
60228;BME280;46091;46.512;6.626;2023-04-25T08:15:29;96530.78;;;13.95;58.23
60228;BME280;46091;46.512;6.626;2023-04-25T08:17:32;96530.34;;;13.98;58.16
60228;BME280;46091;46.512;6.626;2023-04-25T08:19:35;96533.94;;;14.04;58.29
60228;BME280;46091;46.512;6.626;2023-04-25T08:21:40;96542.44;;;14.13;58.25
60228;BME280;46091;46.512;6.626;2023-04-25T08:23:43;96556.50;;;14.20;57.77
60228;BME280;46091;46.512;6.626;2023-04-25T08:25:47;96549.69;;;14.24;57.68
60228;BME280;46091;46.512;6.626;2023-04-25T08:27:50;96555.44;;;14.21;57.52
60228;BME280;46091;46.512;6.626;2023-04-25T08:29:53;96556.84;;;14.23;57.61
60228;BME280;46091;46.512;6.626;2023-04-25T08:31:56;96556.63;;;14.25;57.62
60228;BME280;46091;46.512;6.626;2023-04-25T08:33:59;96559.44;;;14.30;57.29
60228;BME280;46091;46.512;6.626;2023-04-25T08:36:02;96559.75;;;14.40;57.44
60228;BME280;46091;46.512;6.626;2023-04-25T08:38:07;96557.19;;;14.52;57.21
60228;BME280;46091;46.512;6.626;2023-04-25T08:40:12;96561.97;;;14.62;57.03
60228;BME280;46091;46.512;6.626;2023-04-25T08:42:17;96569.63;;;14.70;56.75
60228;BME280;46091;46.512;6.626;2023-04-25T08:44:20;96572.75;;;14.67;56.63
60228;BME280;46091;46.512;6.626;2023-04-25T08:46:23;96576.13;;;14.74;56.88
60228;BME280;46091;46.512;6.626;2023-04-25T08:48:28;96576.03;;;14.80;56.80
60228;BME280;46091;46.512;6.626;2023-04-25T08:50:31;96585.28;;;14.78;56.65
60228;BME280;46091;46.512;6.626;2023-04-25T08:52:36;96587.94;;;14.78;56.34
60228;BME280;46091;46.512;6.626;2023-04-25T08:54:43;96580.41;;;14.75;56.36
60228;BME280;46091;46.512;6.626;2023-04-25T08:56:48;96584.78;;;14.69;55.95
60228;BME280;46091;46.512;6.626;2023-04-25T08:58:51;96585.47;;;14.65;56.38
60228;BME280;46091;46.512;6.626;2023-04-25T09:00:55;96593.28;;;14.60;56.00
60228;BME280;46091;46.512;6.626;2023-04-25T09:02:58;96597.44;;;14.55;56.02
60228;BME280;46091;46.512;6.626;2023-04-25T09:05:02;96595.22;;;14.52;55.98
60228;BME280;46091;46.512;6.626;2023-04-25T09:07:06;96597.31;;;14.50;55.92
60228;BME280;46091;46.512;6.626;2023-04-25T09:09:10;96599.97;;;14.50;55.64
60228;BME280;46091;46.512;6.626;2023-04-25T09:11:15;96596.09;;;14.46;55.69
60228;BME280;46091;46.512;6.626;2023-04-25T09:13:25;96603.50;;;14.44;55.71
60228;BME280;46091;46.512;6.626;2023-04-25T09:15:31;96618.59;;;14.44;55.79
60228;BME280;46091;46.512;6.626;2023-04-25T09:17:34;96619.44;;;14.44;55.45
60228;BME280;46091;46.512;6.626;2023-04-25T09:19:41;96648.09;;;14.42;55.35
60228;BME280;46091;46.512;6.626;2023-04-25T09:21:48;96659.94;;;14.21;55.02
60228;BME280;46091;46.512;6.626;2023-04-25T09:23:51;96676.66;;;14.04;55.41
60228;BME280;46091;46.512;6.626;2023-04-25T09:25:55;96674.22;;;14.02;55.30
60228;BME280;46091;46.512;6.626;2023-04-25T09:28:03;96674.06;;;13.97;55.01
60228;BME280;46091;46.512;6.626;2023-04-25T09:30:07;96674.81;;;13.79;55.18
60228;BME280;46091;46.512;6.626;2023-04-25T09:32:12;96676.50;;;13.74;55.53
60228;BME280;46091;46.512;6.626;2023-04-25T09:34:15;96682.63;;;13.74;55.10
60228;BME280;46091;46.512;6.626;2023-04-25T09:36:26;96664.38;;;13.53;55.27
60228;BME280;46091;46.512;6.626;2023-04-25T09:38:32;96672.53;;;13.13;55.49
60228;BME280;46091;46.512;6.626;2023-04-25T09:40:49;96654.53;;;12.83;56.22
60228;BME280;46091;46.512;6.626;2023-04-25T09:42:54;96636.63;;;12.72;56.32
60228;BME280;46091;46.512;6.626;2023-04-25T09:44:59;96636.56;;;12.86;56.39
60228;BME280;46091;46.512;6.626;2023-04-25T09:47:03;96642.66;;;12.93;56.40
60228;BME280;46091;46.512;6.626;2023-04-25T09:49:07;96643.25;;;12.95;56.31
60228;BME280;46091;46.512;6.626;2023-04-25T09:51:11;96640.16;;;12.98;56.71
60228;BME280;46091;46.512;6.626;2023-04-25T09:53:15;96638.91;;;13.07;56.63
60228;BME280;46091;46.512;6.626;2023-04-25T09:55:18;96645.41;;;13.11;56.61
60228;BME280;46091;46.512;6.626;2023-04-25T09:57:23;96648.25;;;13.16;56.41
60228;BME280;46091;46.512;6.626;2023-04-25T09:59:27;96654.13;;;13.25;56.29
60228;BME280;46091;46.512;6.626;2023-04-25T10:01:34;96660.00;;;13.33;56.29
60228;BME280;46091;46.512;6.626;2023-04-25T10:03:40;96662.53;;;13.53;56.23
60228;BME280;46091;46.512;6.626;2023-04-25T10:05:44;96665.06;;;13.73;55.84
60228;BME280;46091;46.512;6.626;2023-04-25T10:07:51;96672.72;;;13.88;55.77
60228;BME280;46091;46.512;6.626;2023-04-25T10:09:59;96676.38;;;13.93;55.59
60228;BME280;46091;46.512;6.626;2023-04-25T10:12:04;96679.03;;;13.93;55.58
60228;BME280;46091;46.512;6.626;2023-04-25T10:14:08;96686.13;;;13.99;55.39
60228;BME280;46091;46.512;6.626;2023-04-25T10:16:12;96701.34;;;14.11;54.89
60228;BME280;46091;46.512;6.626;2023-04-25T10:18:17;96696.22;;;14.16;54.78
60228;BME280;46091;46.512;6.626;2023-04-25T10:20:22;96697.84;;;14.17;54.88
60228;BME280;46091;46.512;6.626;2023-04-25T10:22:31;96701.81;;;14.26;54.56
60228;BME280;46091;46.512;6.626;2023-04-25T10:24:35;96693.22;;;14.31;54.76
60228;BME280;46091;46.512;6.626;2023-04-25T10:26:41;96689.06;;;14.35;54.39
60228;BME280;46091;46.512;6.626;2023-04-25T10:28:55;96694.16;;;14.36;54.52
60228;BME280;46091;46.512;6.626;2023-04-25T10:30:59;96702.72;;;14.38;54.18
60228;BME280;46091;46.512;6.626;2023-04-25T10:33:17;96697.28;;;14.33;54.05
60228;BME280;46091;46.512;6.626;2023-04-25T10:35:24;96695.66;;;14.32;54.10
60228;BME280;46091;46.512;6.626;2023-04-25T10:37:27;96694.38;;;14.35;54.04
60228;BME280;46091;46.512;6.626;2023-04-25T10:39:32;96698.84;;;14.41;54.00
60228;BME280;46091;46.512;6.626;2023-04-25T10:41:52;96692.66;;;14.47;53.96
60228;BME280;46091;46.512;6.626;2023-04-25T10:43:59;96694.22;;;14.54;53.55
60228;BME280;46091;46.512;6.626;2023-04-25T10:46:13;96695.00;;;14.62;53.43
60228;BME280;46091;46.512;6.626;2023-04-25T10:48:26;96692.03;;;14.70;53.48
60228;BME280;46091;46.512;6.626;2023-04-25T10:50:37;96688.25;;;14.77;53.19
60228;BME280;46091;46.512;6.626;2023-04-25T10:52:41;96696.38;;;14.82;53.18
60228;BME280;46091;46.512;6.626;2023-04-25T10:54:49;96698.22;;;14.82;53.19
60228;BME280;46091;46.512;6.626;2023-04-25T10:56:54;96694.75;;;14.81;52.96
60228;BME280;46091;46.512;6.626;2023-04-25T10:59:04;96697.63;;;14.80;52.86
60228;BME280;46091;46.512;6.626;2023-04-25T11:01:08;96696.38;;;14.82;52.91
60228;BME280;46091;46.512;6.626;2023-04-25T11:03:16;96704.31;;;14.89;52.98
60228;BME280;46091;46.512;6.626;2023-04-25T11:05:23;96706.09;;;14.95;52.73
60228;BME280;46091;46.512;6.626;2023-04-25T11:07:34;96702.69;;;15.06;52.60
60228;BME280;46091;46.512;6.626;2023-04-25T11:09:39;96704.19;;;15.14;52.30
60228;BME280;46091;46.512;6.626;2023-04-25T11:11:42;96704.59;;;15.18;52.17
60228;BME280;46091;46.512;6.626;2023-04-25T11:13:47;96706.91;;;15.26;52.03
60228;BME280;46091;46.512;6.626;2023-04-25T11:15:51;96697.47;;;15.30;51.88
60228;BME280;46091;46.512;6.626;2023-04-25T11:18:16;96703.97;;;15.34;52.10
60228;BME280;46091;46.512;6.626;2023-04-25T11:20:21;96703.25;;;15.38;51.92
60228;BME280;46091;46.512;6.626;2023-04-25T11:22:26;96697.28;;;15.43;51.87
60228;BME280;46091;46.512;6.626;2023-04-25T11:24:31;96701.69;;;15.49;51.65
60228;BME280;46091;46.512;6.626;2023-04-25T11:26:35;96694.50;;;15.50;51.74
60228;BME280;46091;46.512;6.626;2023-04-25T11:28:39;96696.00;;;15.46;51.54
60228;BME280;46091;46.512;6.626;2023-04-25T11:30:47;96682.47;;;15.47;51.56
60228;BME280;46091;46.512;6.626;2023-04-25T11:32:51;96690.00;;;15.50;51.63
60228;BME280;46091;46.512;6.626;2023-04-25T11:34:54;96675.50;;;15.46;51.51
60228;BME280;46091;46.512;6.626;2023-04-25T11:36:59;96680.34;;;15.37;51.41
60228;BME280;46091;46.512;6.626;2023-04-25T11:39:03;96683.47;;;15.34;51.64
60228;BME280;46091;46.512;6.626;2023-04-25T11:41:07;96671.19;;;15.33;51.60
60228;BME280;46091;46.512;6.626;2023-04-25T11:43:10;96673.31;;;15.43;51.69
60228;BME280;46091;46.512;6.626;2023-04-25T11:45:14;96680.84;;;15.46;51.46
60228;BME280;46091;46.512;6.626;2023-04-25T11:47:18;96683.63;;;15.51;51.39
60228;BME280;46091;46.512;6.626;2023-04-25T11:49:22;96681.41;;;15.48;51.23
60228;BME280;46091;46.512;6.626;2023-04-25T11:51:26;96686.03;;;15.41;50.97
60228;BME280;46091;46.512;6.626;2023-04-25T11:53:30;96688.56;;;15.36;51.02
60228;BME280;46091;46.512;6.626;2023-04-25T11:55:33;96690.06;;;15.32;50.65
60228;BME280;46091;46.512;6.626;2023-04-25T11:57:38;96692.56;;;15.27;50.52
60228;BME280;46091;46.512;6.626;2023-04-25T11:59:44;96680.97;;;15.21;50.51
60228;BME280;46091;46.512;6.626;2023-04-25T12:01:48;96683.88;;;15.20;50.30
60228;BME280;46091;46.512;6.626;2023-04-25T12:03:52;96681.63;;;15.17;50.30
60228;BME280;46091;46.512;6.626;2023-04-25T12:06:02;96679.13;;;15.22;49.97
60228;BME280;46091;46.512;6.626;2023-04-25T12:08:10;96681.91;;;15.27;49.92
60228;BME280;46091;46.512;6.626;2023-04-25T12:10:16;96683.47;;;15.34;49.50
60228;BME280;46091;46.512;6.626;2023-04-25T12:12:19;96685.00;;;15.42;49.42
60228;BME280;46091;46.512;6.626;2023-04-25T12:14:23;96682.81;;;15.51;49.46
60228;BME280;46091;46.512;6.626;2023-04-25T12:16:29;96687.72;;;15.54;49.05
60228;BME280;46091;46.512;6.626;2023-04-25T12:18:35;96685.28;;;15.52;49.04
60228;BME280;46091;46.512;6.626;2023-04-25T12:20:38;96687.31;;;15.50;48.86
60228;BME280;46091;46.512;6.626;2023-04-25T12:22:41;96694.97;;;15.47;48.87
60228;BME280;46091;46.512;6.626;2023-04-25T12:24:47;96688.25;;;15.44;48.73
60228;BME280;46091;46.512;6.626;2023-04-25T12:26:52;96687.44;;;15.43;48.45
60228;BME280;46091;46.512;6.626;2023-04-25T12:28:56;96695.50;;;15.37;48.58
60228;BME280;46091;46.512;6.626;2023-04-25T12:31:00;96692.72;;;15.32;48.46
60228;BME280;46091;46.512;6.626;2023-04-25T12:33:04;96687.63;;;15.30;48.46
60228;BME280;46091;46.512;6.626;2023-04-25T12:35:08;96691.53;;;15.28;48.30
60228;BME280;46091;46.512;6.626;2023-04-25T12:37:11;96687.69;;;15.24;48.21
60228;BME280;46091;46.512;6.626;2023-04-25T12:39:15;96680.53;;;15.24;48.06
60228;BME280;46091;46.512;6.626;2023-04-25T12:41:17;96681.09;;;15.26;48.07
60228;BME280;46091;46.512;6.626;2023-04-25T12:43:22;96684.56;;;15.27;47.65
60228;BME280;46091;46.512;6.626;2023-04-25T12:45:25;96696.28;;;15.26;47.73
60228;BME280;46091;46.512;6.626;2023-04-25T12:47:28;96691.94;;;15.13;47.84
60228;BME280;46091;46.512;6.626;2023-04-25T12:49:31;96693.19;;;15.10;48.10
60228;BME280;46091;46.512;6.626;2023-04-25T12:51:34;96697.59;;;15.17;47.93
60228;BME280;46091;46.512;6.626;2023-04-25T12:53:37;96694.66;;;15.25;48.21
60228;BME280;46091;46.512;6.626;2023-04-25T12:55:43;96688.88;;;15.28;48.28
60228;BME280;46091;46.512;6.626;2023-04-25T12:57:50;96694.13;;;15.34;48.25
60228;BME280;46091;46.512;6.626;2023-04-25T12:59:55;96679.69;;;15.42;48.16
60228;BME280;46091;46.512;6.626;2023-04-25T13:01:58;96678.75;;;15.48;48.07
60228;BME280;46091;46.512;6.626;2023-04-25T13:04:01;96684.53;;;15.45;48.12
60228;BME280;46091;46.512;6.626;2023-04-25T13:06:05;96684.78;;;15.43;48.25
60228;BME280;46091;46.512;6.626;2023-04-25T13:08:09;96683.84;;;15.50;48.36
60228;BME280;46091;46.512;6.626;2023-04-25T13:10:12;96686.44;;;15.56;48.15
60228;BME280;46091;46.512;6.626;2023-04-25T13:12:16;96681.06;;;15.63;48.04
60228;BME280;46091;46.512;6.626;2023-04-25T13:14:21;96687.31;;;15.68;47.76
60228;BME280;46091;46.512;6.626;2023-04-25T13:16:25;96687.88;;;15.70;47.97
60228;BME280;46091;46.512;6.626;2023-04-25T13:18:29;96681.50;;;15.71;47.70
60228;BME280;46091;46.512;6.626;2023-04-25T13:20:32;96685.38;;;15.76;47.91
60228;BME280;46091;46.512;6.626;2023-04-25T13:22:35;96688.16;;;15.81;47.88
60228;BME280;46091;46.512;6.626;2023-04-25T13:24:39;96686.53;;;15.80;47.79
60228;BME280;46091;46.512;6.626;2023-04-25T13:26:43;96677.94;;;15.78;47.87
60228;BME280;46091;46.512;6.626;2023-04-25T13:28:46;96688.25;;;15.74;47.99
60228;BME280;46091;46.512;6.626;2023-04-25T13:30:50;96684.19;;;15.71;47.83
60228;BME280;46091;46.512;6.626;2023-04-25T13:32:54;96681.75;;;15.70;47.86
60228;BME280;46091;46.512;6.626;2023-04-25T13:34:59;96688.00;;;15.64;48.15
60228;BME280;46091;46.512;6.626;2023-04-25T13:37:07;96681.91;;;15.57;47.76
60228;BME280;46091;46.512;6.626;2023-04-25T13:39:10;96684.09;;;15.48;47.83
60228;BME280;46091;46.512;6.626;2023-04-25T13:41:13;96680.03;;;15.46;47.98
60228;BME280;46091;46.512;6.626;2023-04-25T13:43:20;96680.84;;;15.46;47.88
60228;BME280;46091;46.512;6.626;2023-04-25T13:45:23;96680.50;;;15.42;48.03
60228;BME280;46091;46.512;6.626;2023-04-25T13:47:27;96686.63;;;15.43;47.79
60228;BME280;46091;46.512;6.626;2023-04-25T13:49:31;96679.69;;;15.42;47.83
60228;BME280;46091;46.512;6.626;2023-04-25T13:51:35;96683.00;;;15.37;47.88
60228;BME280;46091;46.512;6.626;2023-04-25T13:53:38;96676.97;;;15.30;47.77
60228;BME280;46091;46.512;6.626;2023-04-25T13:55:41;96685.25;;;15.22;47.80
60228;BME280;46091;46.512;6.626;2023-04-25T13:57:44;96675.72;;;15.14;47.83
60228;BME280;46091;46.512;6.626;2023-04-25T13:59:47;96682.09;;;15.13;47.83
60228;BME280;46091;46.512;6.626;2023-04-25T14:01:50;96680.00;;;15.15;47.95
60228;BME280;46091;46.512;6.626;2023-04-25T14:03:53;96681.78;;;15.22;47.94
60228;BME280;46091;46.512;6.626;2023-04-25T14:05:57;96687.97;;;15.34;47.71
60228;BME280;46091;46.512;6.626;2023-04-25T14:08:00;96683.16;;;15.42;47.58
60228;BME280;46091;46.512;6.626;2023-04-25T14:10:04;96682.81;;;15.51;47.56
60228;BME280;46091;46.512;6.626;2023-04-25T14:12:07;96680.75;;;15.53;47.33
60228;BME280;46091;46.512;6.626;2023-04-25T14:14:11;96681.56;;;15.53;47.37
60228;BME280;46091;46.512;6.626;2023-04-25T14:16:17;96692.22;;;15.53;47.00
60228;BME280;46091;46.512;6.626;2023-04-25T14:18:21;96692.22;;;15.53;47.14
60228;BME280;46091;46.512;6.626;2023-04-25T14:20:25;96686.91;;;15.53;46.92
60228;BME280;46091;46.512;6.626;2023-04-25T14:22:29;96687.47;;;15.55;46.80
60228;BME280;46091;46.512;6.626;2023-04-25T14:24:32;96681.56;;;15.53;46.75
60228;BME280;46091;46.512;6.626;2023-04-25T14:26:35;96678.66;;;15.55;46.85
60228;BME280;46091;46.512;6.626;2023-04-25T14:28:38;96673.69;;;15.58;46.65
60228;BME280;46091;46.512;6.626;2023-04-25T14:30:41;96664.47;;;15.61;46.56
60228;BME280;46091;46.512;6.626;2023-04-25T14:32:44;96665.88;;;15.63;46.63
60228;BME280;46091;46.512;6.626;2023-04-25T14:34:48;96663.56;;;15.67;46.67
60228;BME280;46091;46.512;6.626;2023-04-25T14:36:52;96667.38;;;15.71;46.52
60228;BME280;46091;46.512;6.626;2023-04-25T14:38:56;96664.84;;;15.76;46.37
60228;BME280;46091;46.512;6.626;2023-04-25T14:40:59;96663.59;;;15.79;46.21
60228;BME280;46091;46.512;6.626;2023-04-25T14:43:02;96662.78;;;15.78;46.21
60228;BME280;46091;46.512;6.626;2023-04-25T14:45:07;96665.91;;;15.75;45.97
60228;BME280;46091;46.512;6.626;2023-04-25T14:47:10;96659.97;;;15.73;45.66
60228;BME280;46091;46.512;6.626;2023-04-25T14:49:13;96664.94;;;15.69;45.69
60228;BME280;46091;46.512;6.626;2023-04-25T14:51:16;96657.53;;;15.71;45.74
60228;BME280;46091;46.512;6.626;2023-04-25T14:53:19;96655.00;;;15.77;45.51
60228;BME280;46091;46.512;6.626;2023-04-25T14:55:23;96657.44;;;15.78;45.60
60228;BME280;46091;46.512;6.626;2023-04-25T14:57:27;96658.13;;;15.85;45.30
60228;BME280;46091;46.512;6.626;2023-04-25T14:59:29;96655.84;;;15.89;45.25
60228;BME280;46091;46.512;6.626;2023-04-25T15:01:32;96651.56;;;15.88;45.05
60228;BME280;46091;46.512;6.626;2023-04-25T15:03:36;96651.09;;;15.91;44.83
60228;BME280;46091;46.512;6.626;2023-04-25T15:05:40;96655.94;;;15.94;44.76
60228;BME280;46091;46.512;6.626;2023-04-25T15:07:43;96665.56;;;15.95;44.66
60228;BME280;46091;46.512;6.626;2023-04-25T15:09:47;96657.47;;;15.90;44.63
60228;BME280;46091;46.512;6.626;2023-04-25T15:11:51;96662.78;;;15.90;44.35
60228;BME280;46091;46.512;6.626;2023-04-25T15:13:54;96646.78;;;15.90;44.28
60228;BME280;46091;46.512;6.626;2023-04-25T15:15:57;96651.66;;;15.93;44.22
60228;BME280;46091;46.512;6.626;2023-04-25T15:18:00;96651.66;;;15.93;43.85
60228;BME280;46091;46.512;6.626;2023-04-25T15:20:05;96651.44;;;15.94;43.92
60228;BME280;46091;46.512;6.626;2023-04-25T15:22:08;96661.28;;;15.94;43.48
60228;BME280;46091;46.512;6.626;2023-04-25T15:24:11;96663.38;;;15.92;43.57
60228;BME280;46091;46.512;6.626;2023-04-25T15:26:15;96656.41;;;15.91;43.38
60228;BME280;46091;46.512;6.626;2023-04-25T15:28:19;96660.94;;;15.90;43.35
60228;BME280;46091;46.512;6.626;2023-04-25T15:30:23;96656.41;;;15.91;43.52
60228;BME280;46091;46.512;6.626;2023-04-25T15:32:26;96659.09;;;15.91;43.41
60228;BME280;46091;46.512;6.626;2023-04-25T15:34:29;96658.84;;;15.92;43.27
60228;BME280;46091;46.512;6.626;2023-04-25T15:36:32;96664.66;;;15.89;43.59
60228;BME280;46091;46.512;6.626;2023-04-25T15:38:35;96663.25;;;15.87;43.61
60228;BME280;46091;46.512;6.626;2023-04-25T15:40:38;96666.59;;;15.82;43.55
60228;BME280;46091;46.512;6.626;2023-04-25T15:42:41;96672.97;;;15.81;43.45
60228;BME280;46091;46.512;6.626;2023-04-25T15:44:46;96674.81;;;15.81;43.56
60228;BME280;46091;46.512;6.626;2023-04-25T15:46:48;96681.53;;;15.83;43.49
60228;BME280;46091;46.512;6.626;2023-04-25T15:48:54;96673.31;;;15.85;43.47
60228;BME280;46091;46.512;6.626;2023-04-25T15:50:57;96672.31;;;15.86;43.64
60228;BME280;46091;46.512;6.626;2023-04-25T15:53:00;96670.88;;;15.83;43.31
60228;BME280;46091;46.512;6.626;2023-04-25T15:55:06;96672.72;;;15.83;43.40
60228;BME280;46091;46.512;6.626;2023-04-25T15:57:09;96681.19;;;15.80;43.68
60228;BME280;46091;46.512;6.626;2023-04-25T15:59:13;96677.94;;;15.78;43.61
60228;BME280;46091;46.512;6.626;2023-04-25T16:01:17;96675.06;;;15.79;43.63
60228;BME280;46091;46.512;6.626;2023-04-25T16:03:24;96674.81;;;15.81;43.54
60228;BME280;46091;46.512;6.626;2023-04-25T16:05:28;96674.81;;;15.81;43.41
60228;BME280;46091;46.512;6.626;2023-04-25T16:07:30;96677.56;;;15.74;43.36
60228;BME280;46091;46.512;6.626;2023-04-25T16:09:33;96666.47;;;15.65;43.51
60228;BME280;46091;46.512;6.626;2023-04-25T16:11:36;96673.50;;;15.60;43.53
60228;BME280;46091;46.512;6.626;2023-04-25T16:13:39;96678.81;;;15.60;43.28
60228;BME280;46091;46.512;6.626;2023-04-25T16:15:42;96673.25;;;15.61;43.38
60228;BME280;46091;46.512;6.626;2023-04-25T16:17:46;96675.72;;;15.63;43.50
60228;BME280;46091;46.512;6.626;2023-04-25T16:19:49;96682.69;;;15.64;43.17
60228;BME280;46091;46.512;6.626;2023-04-25T16:21:52;96673.63;;;15.65;43.21
60228;BME280;46091;46.512;6.626;2023-04-25T16:23:56;96689.63;;;15.65;43.20
60228;BME280;46091;46.512;6.626;2023-04-25T16:25:59;96683.25;;;15.66;43.02
60228;BME280;46091;46.512;6.626;2023-04-25T16:28:02;96689.16;;;15.68;43.01
60228;BME280;46091;46.512;6.626;2023-04-25T16:30:06;96691.81;;;15.68;43.08
60228;BME280;46091;46.512;6.626;2023-04-25T16:32:10;96692.06;;;15.66;43.04
60228;BME280;46091;46.512;6.626;2023-04-25T16:34:14;96694.16;;;15.64;42.96
60228;BME280;46091;46.512;6.626;2023-04-25T16:36:22;96692.16;;;15.60;43.18
60228;BME280;46091;46.512;6.626;2023-04-25T16:38:25;96695.81;;;15.59;42.89
60228;BME280;46091;46.512;6.626;2023-04-25T16:40:29;96685.78;;;15.61;42.97
60228;BME280;46091;46.512;6.626;2023-04-25T16:42:32;96688.22;;;15.62;43.20
60228;BME280;46091;46.512;6.626;2023-04-25T16:44:35;96687.19;;;15.63;43.02
60228;BME280;46091;46.512;6.626;2023-04-25T16:46:38;96678.97;;;15.65;43.12
60228;BME280;46091;46.512;6.626;2023-04-25T16:48:41;96678.28;;;15.69;42.89
60228;BME280;46091;46.512;6.626;2023-04-25T16:50:46;96670.03;;;15.71;43.05